createdAt,value
2023-01-19T00:00:28.088Z,83.43
2023-01-19T00:02:55.069Z,80.58
2023-01-19T00:05:21.894Z,81.60
2023-01-19T00:07:48.489Z,79.96
2023-01-19T00:10:14.972Z,80.97
2023-01-19T00:12:41.434Z,80.23
2023-01-19T00:15:08.518Z,80.85
2023-01-19T00:17:35.028Z,82.02
2023-01-19T00:20:01.533Z,80.04
2023-01-19T00:22:28.002Z,80.07
2023-01-19T00:24:54.509Z,80.00
2023-01-19T00:27:21.032Z,80.40
2023-01-19T00:29:47.525Z,81.48
2023-01-19T00:32:14.074Z,80.65
2023-01-19T00:34:49.408Z,80.06
2023-01-19T00:37:17.102Z,80.42
2023-01-19T00:39:43.907Z,79.13
2023-01-19T00:42:32.058Z,78.37
2023-01-19T00:44:58.556Z,78.48
2023-01-19T00:47:25.487Z,79.48
2023-01-19T00:49:52.043Z,79.30
2023-01-19T00:52:18.502Z,79.39
2023-01-19T00:54:44.977Z,77.60
2023-01-19T00:57:11.457Z,78.02
2023-01-19T00:59:37.935Z,78.26
2023-01-19T01:02:04.611Z,78.99
2023-01-19T01:04:31.319Z,78.14
2023-01-19T01:06:57.766Z,78.67
2023-01-19T01:09:24.548Z,79.06
2023-01-19T01:11:51.004Z,77.37
2023-01-19T01:14:18.253Z,78.62
2023-01-19T01:16:45.018Z,78.61
2023-01-19T01:19:11.583Z,78.29
2023-01-19T01:21:38.135Z,77.91
2023-01-19T01:24:05.381Z,77.13
2023-01-19T01:26:31.853Z,77.21
2023-01-19T01:28:58.370Z,76.62
2023-01-19T01:31:25.472Z,77.44
2023-01-19T01:33:52.044Z,77.60
2023-01-19T01:36:21.338Z,77.30
2023-01-19T01:38:47.974Z,76.04
2023-01-19T01:41:14.639Z,76.49
2023-01-19T01:43:45.889Z,77.94
2023-01-19T01:46:15.795Z,76.99
2023-01-19T01:48:46.315Z,77.67
2023-01-19T01:51:24.467Z,76.74
2023-01-19T01:54:04.041Z,76.01
2023-01-19T01:56:42.978Z,75.06
2023-01-19T01:59:13.732Z,76.84
2023-01-19T02:01:59.033Z,76.58
2023-01-19T02:04:26.619Z,75.70
2023-01-19T02:07:11.815Z,77.21
2023-01-19T02:09:56.819Z,76.02
2023-01-19T02:12:41.996Z,77.07
2023-01-19T02:15:20.204Z,75.43
2023-01-19T02:17:46.980Z,76.78
2023-01-19T02:20:13.925Z,76.37
2023-01-19T02:22:50.334Z,75.34
2023-01-19T02:25:19.331Z,77.32
2023-01-19T02:27:46.057Z,77.29
2023-01-19T02:30:13.856Z,77.17
2023-01-19T02:32:40.331Z,76.02
2023-01-19T02:35:07.244Z,75.60
2023-01-19T02:37:37.554Z,76.70
2023-01-19T02:40:05.659Z,76.43
2023-01-19T02:42:38.283Z,75.45
2023-01-19T02:45:06.964Z,76.05
2023-01-19T02:47:42.021Z,75.73
2023-01-19T02:50:38.396Z,75.96
2023-01-19T02:53:29.724Z,75.88
2023-01-19T02:56:07.216Z,76.08
2023-01-19T02:58:49.245Z,76.60
2023-01-19T03:01:30.247Z,76.28
2023-01-19T03:04:26.513Z,76.16
2023-01-19T03:07:00.767Z,76.31
2023-01-19T03:09:48.950Z,77.56
2023-01-19T03:12:41.619Z,76.13
2023-01-19T03:15:16.272Z,78.43
2023-01-19T03:17:44.543Z,77.36
2023-01-19T03:20:14.035Z,75.87
2023-01-19T03:22:41.046Z,75.80
2023-01-19T03:25:07.815Z,76.22
2023-01-19T03:27:41.247Z,76.07
2023-01-19T03:30:18.697Z,76.41
2023-01-19T03:32:49.928Z,76.95
2023-01-19T03:35:17.646Z,76.84
2023-01-19T03:37:45.358Z,76.43
2023-01-19T03:40:12.454Z,75.30
2023-01-19T03:42:39.598Z,76.17
2023-01-19T03:45:07.030Z,77.58
2023-01-19T03:47:34.060Z,77.61
2023-01-19T03:50:03.048Z,77.29
2023-01-19T03:52:33.515Z,76.37
2023-01-19T03:55:01.325Z,77.42
2023-01-19T03:57:27.959Z,77.36
2023-01-19T03:59:54.455Z,77.56
2023-01-19T04:02:20.969Z,77.67
2023-01-19T04:04:47.800Z,75.60
2023-01-19T04:07:14.375Z,77.98
2023-01-19T04:09:40.904Z,77.53
2023-01-19T04:12:07.823Z,77.64
2023-01-19T04:14:34.289Z,78.22
2023-01-19T04:17:00.770Z,78.20
2023-01-19T04:19:27.239Z,77.69
2023-01-19T04:21:53.742Z,77.13
2023-01-19T04:24:20.195Z,77.35
2023-01-19T04:26:46.707Z,76.75
2023-01-19T04:29:14.363Z,75.75
2023-01-19T04:31:41.165Z,76.93
2023-01-19T04:34:07.605Z,77.75
2023-01-19T04:36:34.095Z,78.21
2023-01-19T04:39:00.513Z,78.53
2023-01-19T04:41:26.968Z,78.29
2023-01-19T04:43:53.545Z,78.12
2023-01-19T04:46:20.023Z,78.58
2023-01-19T04:48:46.496Z,77.67
2023-01-19T04:51:12.978Z,78.70
2023-01-19T04:53:39.521Z,77.62
2023-01-19T04:56:06.071Z,78.23
2023-01-19T04:58:32.551Z,78.01
2023-01-19T05:00:59.153Z,77.17
2023-01-19T05:03:26.656Z,77.91
2023-01-19T05:05:53.393Z,78.10
2023-01-19T05:08:19.950Z,78.08
2023-01-19T05:10:46.425Z,79.88
2023-01-19T05:13:14.108Z,77.65
2023-01-19T05:15:40.547Z,79.08
2023-01-19T05:18:07.000Z,77.07
2023-01-19T05:20:33.460Z,78.96
2023-01-19T05:23:00.300Z,78.19
2023-01-19T05:25:26.983Z,78.70
2023-01-19T05:27:53.480Z,78.06
2023-01-19T05:30:19.976Z,78.40
2023-01-19T05:32:46.767Z,79.81
2023-01-19T05:35:20.195Z,79.14
2023-01-19T05:37:51.551Z,78.38
2023-01-19T05:40:18.187Z,78.70
2023-01-19T05:42:44.639Z,78.01
2023-01-19T05:45:11.944Z,78.48
2023-01-19T05:47:38.412Z,79.91
2023-01-19T05:50:05.350Z,79.78
2023-01-19T05:52:31.921Z,79.49
2023-01-19T05:54:58.353Z,78.67
2023-01-19T05:57:24.885Z,81.32
2023-01-19T05:59:51.330Z,79.66
2023-01-19T06:02:17.839Z,80.21
2023-01-19T06:04:44.843Z,80.00
2023-01-19T06:07:11.369Z,78.14
2023-01-19T06:09:37.838Z,79.79
2023-01-19T06:12:04.644Z,80.06
2023-01-19T06:14:32.501Z,79.21
2023-01-19T06:16:58.937Z,79.73
2023-01-19T06:19:25.596Z,80.09
2023-01-19T06:21:52.443Z,80.24
2023-01-19T06:24:19.416Z,79.68
2023-01-19T06:26:46.075Z,79.59
2023-01-19T06:29:13.785Z,79.53
2023-01-19T06:31:40.801Z,79.26
2023-01-19T06:34:07.519Z,81.01
2023-01-19T06:36:34.015Z,80.38
2023-01-19T06:39:03.367Z,81.20
2023-01-19T06:41:29.982Z,82.17
2023-01-19T06:43:56.493Z,81.18
2023-01-19T06:46:22.984Z,81.65
2023-01-19T06:48:49.430Z,83.09
2023-01-19T06:51:15.873Z,81.66
2023-01-19T06:53:42.344Z,81.64
2023-01-19T06:56:09.682Z,83.09
2023-01-19T06:58:36.686Z,83.54
2023-01-19T07:01:04.985Z,81.97
2023-01-19T07:03:31.835Z,81.16
2023-01-19T07:06:00.857Z,83.08
2023-01-19T07:08:27.338Z,82.74
2023-01-19T07:11:25.564Z,83.85
2023-01-19T07:13:51.410Z,81.67
2023-01-19T07:16:17.899Z,83.08
2023-01-19T07:18:45.269Z,83.09
2023-01-19T07:21:11.722Z,82.49
2023-01-19T07:23:38.615Z,81.24
2023-01-19T07:26:05.217Z,83.61
2023-01-19T07:28:32.928Z,83.71
2023-01-19T07:30:59.601Z,83.63
2023-01-19T07:33:26.308Z,83.10
2023-01-19T07:35:53.261Z,83.46
2023-01-19T07:38:20.459Z,84.03
2023-01-19T07:40:47.180Z,83.54
2023-01-19T07:43:14.534Z,82.96
2023-01-19T07:45:41.343Z,82.85
2023-01-19T07:48:07.892Z,83.57
2023-01-19T07:50:34.393Z,83.52
2023-01-19T07:53:08.499Z,83.12
2023-01-19T07:55:35.376Z,84.02
2023-01-19T07:58:03.964Z,82.36
2023-01-19T08:00:30.578Z,84.64
2023-01-19T08:03:00.483Z,84.02
2023-01-19T08:05:29.200Z,84.84
2023-01-19T08:08:00.387Z,84.14
2023-01-19T08:10:28.479Z,84.21
2023-01-19T08:12:56.078Z,84.85
2023-01-19T08:15:24.541Z,83.88
2023-01-19T08:18:01.067Z,83.47
2023-01-19T08:20:28.930Z,84.09
2023-01-19T08:23:00.144Z,83.65
2023-01-19T08:25:37.490Z,83.32
2023-01-19T08:28:05.394Z,84.39
2023-01-19T08:30:33.064Z,85.56
2023-01-19T08:33:08.081Z,84.79
2023-01-19T08:35:37.081Z,82.78
2023-01-19T08:38:05.078Z,84.28
2023-01-19T08:40:35.935Z,83.21
2023-01-19T08:43:09.264Z,81.22
2023-01-19T08:45:36.820Z,82.44
2023-01-19T08:48:04.269Z,83.62
2023-01-19T08:50:32.500Z,84.00
2023-01-19T08:53:01.360Z,84.12
2023-01-19T08:55:28.828Z,83.13
2023-01-19T08:58:00.500Z,81.32
2023-01-19T09:00:27.708Z,82.46
2023-01-19T09:02:54.979Z,83.41
2023-01-19T09:05:21.569Z,84.94
2023-01-19T09:07:48.239Z,84.69
2023-01-19T09:10:15.829Z,83.69
2023-01-19T09:12:43.523Z,82.58
2023-01-19T09:15:10.894Z,81.52
2023-01-19T09:17:37.497Z,81.84
2023-01-19T09:20:05.970Z,83.99
2023-01-19T09:22:33.322Z,82.48
2023-01-19T09:25:00.338Z,81.53
2023-01-19T09:27:26.785Z,81.52
2023-01-19T09:29:54.070Z,82.53
2023-01-19T09:32:21.264Z,83.48
2023-01-19T09:34:48.024Z,81.40
2023-01-19T09:37:16.123Z,81.87
2023-01-19T09:39:42.730Z,82.88
2023-01-19T09:42:22.046Z,82.57
2023-01-19T09:44:50.291Z,81.55
2023-01-19T09:47:18.472Z,81.95
2023-01-19T09:49:48.754Z,82.54
2023-01-19T09:52:15.731Z,81.85
2023-01-19T09:54:44.170Z,83.15
2023-01-19T09:57:11.800Z,82.28
2023-01-19T09:59:38.928Z,81.91
2023-01-19T10:02:34.077Z,83.24
2023-01-19T10:05:20.315Z,82.75
2023-01-19T10:08:08.940Z,83.12
2023-01-19T10:10:37.391Z,81.05
2023-01-19T10:13:45.744Z,81.28
2023-01-19T10:16:15.297Z,82.39
2023-01-19T10:18:47.684Z,83.02
2023-01-19T10:21:28.366Z,83.04
2023-01-19T10:24:19.831Z,82.97
2023-01-19T10:26:49.236Z,81.40
2023-01-19T10:29:23.037Z,83.37
2023-01-19T10:31:52.400Z,82.61
2023-01-19T10:34:23.688Z,82.87
2023-01-19T10:36:57.438Z,83.55
2023-01-19T10:39:23.933Z,81.90
2023-01-19T10:41:52.677Z,82.44
2023-01-19T10:44:30.101Z,83.00
2023-01-19T10:46:58.838Z,82.40
2023-01-19T10:49:42.551Z,84.03
2023-01-19T10:52:27.154Z,83.66
2023-01-19T10:54:54.266Z,83.31
2023-01-19T10:57:49.304Z,84.41
2023-01-19T11:00:37.819Z,82.72
2023-01-19T11:03:30.183Z,82.17
2023-01-19T11:06:15.529Z,83.78
2023-01-19T11:08:43.793Z,83.37
2023-01-19T11:11:12.433Z,82.11
2023-01-19T11:13:42.703Z,83.24
2023-01-19T11:16:28.026Z,83.10
2023-01-19T11:18:56.367Z,81.55
2023-01-19T11:21:26.063Z,81.94
2023-01-19T11:23:58.228Z,83.59
2023-01-19T11:26:25.655Z,81.63
2023-01-19T11:28:54.663Z,82.53
2023-01-19T11:31:27.434Z,83.30
2023-01-19T11:33:56.571Z,82.39
2023-01-19T11:36:25.321Z,82.43
2023-01-19T11:38:53.971Z,82.27
2023-01-19T11:41:26.512Z,82.58
2023-01-19T11:43:55.667Z,82.28
2023-01-19T11:46:24.753Z,80.75
2023-01-19T11:49:36.202Z,82.07
2023-01-19T11:52:11.192Z,81.51
2023-01-19T11:54:47.443Z,81.48
2023-01-19T11:57:17.125Z,80.12
2023-01-19T11:59:44.632Z,80.56
2023-01-19T12:02:21.361Z,81.87
2023-01-19T12:04:48.505Z,79.44
2023-01-19T12:07:18.924Z,78.51
2023-01-19T12:09:47.750Z,81.13
2023-01-19T12:12:35.260Z,82.48
2023-01-19T12:15:30.027Z,80.42
2023-01-19T12:17:59.883Z,81.83
2023-01-19T12:20:38.517Z,82.60
2023-01-19T12:23:11.036Z,81.65
2023-01-19T12:25:43.528Z,81.99
2023-01-19T12:28:13.660Z,81.63
2023-01-19T12:30:40.270Z,80.78
2023-01-19T12:33:34.939Z,80.07
2023-01-19T12:36:10.563Z,81.37
2023-01-19T12:38:47.760Z,80.83
2023-01-19T12:41:25.318Z,80.03
2023-01-19T12:44:16.380Z,79.99
2023-01-19T12:46:50.116Z,80.31
2023-01-19T12:49:27.237Z,79.60
2023-01-19T12:52:11.232Z,79.25
2023-01-19T12:54:38.080Z,78.46
2023-01-19T12:57:18.295Z,78.91
2023-01-19T12:59:44.891Z,79.13
2023-01-19T13:02:20.583Z,80.21
2023-01-19T13:05:15.057Z,80.46
2023-01-19T13:08:04.876Z,79.98
2023-01-19T13:10:54.037Z,79.08
2023-01-19T13:13:30.479Z,80.69
2023-01-19T13:16:27.448Z,80.36
2023-01-19T13:19:06.255Z,79.40
2023-01-19T13:21:35.717Z,82.24
2023-01-19T13:24:04.712Z,80.99
2023-01-19T13:26:33.597Z,79.51
2023-01-19T13:29:07.585Z,78.84
2023-01-19T13:31:35.464Z,79.16
2023-01-19T13:34:02.997Z,79.96
2023-01-19T13:36:35.804Z,80.55
2023-01-19T13:39:05.653Z,79.94
2023-01-19T13:41:36.170Z,78.70
2023-01-19T13:44:12.833Z,78.27
2023-01-19T13:46:40.631Z,78.61
2023-01-19T13:49:40.553Z,77.33
2023-01-19T13:52:07.891Z,78.24
2023-01-19T13:54:34.433Z,78.50
2023-01-19T13:57:00.877Z,77.20
2023-01-19T13:59:27.365Z,77.35
2023-01-19T14:01:54.406Z,78.47
2023-01-19T14:04:32.231Z,77.98
2023-01-19T14:07:02.309Z,79.18
2023-01-19T14:09:29.049Z,78.23
2023-01-19T14:12:17.401Z,77.27
2023-01-19T14:14:46.806Z,76.31
2023-01-19T14:17:28.208Z,78.35
2023-01-19T14:19:57.030Z,77.94
2023-01-19T14:22:42.651Z,77.91
2023-01-19T14:25:28.325Z,78.87
2023-01-19T14:28:49.168Z,78.60
2023-01-19T14:31:23.352Z,78.48
2023-01-19T14:33:52.749Z,77.17
2023-01-19T14:36:28.977Z,77.77
2023-01-19T14:38:58.512Z,78.09
2023-01-19T14:41:36.610Z,77.79
2023-01-19T14:44:11.117Z,77.98
2023-01-19T14:46:38.189Z,77.56
2023-01-19T14:49:06.148Z,78.06
2023-01-19T14:51:32.806Z,78.39
2023-01-19T14:54:00.809Z,77.25
2023-01-19T14:56:32.357Z,76.90
2023-01-19T14:59:01.033Z,77.15
2023-01-19T15:01:28.731Z,76.49
2023-01-19T15:03:58.717Z,76.44
2023-01-19T15:06:26.088Z,77.60
2023-01-19T15:08:56.058Z,78.50
2023-01-19T15:11:30.431Z,78.57
2023-01-19T15:13:57.541Z,78.48
2023-01-19T15:16:24.869Z,79.18
2023-01-19T15:18:51.628Z,78.60
2023-01-19T15:21:26.796Z,78.12
2023-01-19T15:23:58.163Z,78.55
2023-01-19T15:26:25.826Z,78.27
2023-01-19T15:28:52.577Z,77.54
2023-01-19T15:31:23.864Z,77.62
2023-01-19T15:34:11.720Z,78.99
2023-01-19T15:36:38.239Z,77.44
2023-01-19T15:39:04.708Z,77.26
2023-01-19T15:41:31.229Z,78.30
2023-01-19T15:43:58.468Z,79.03
2023-01-19T15:46:25.836Z,79.00
2023-01-19T15:48:52.965Z,78.29
2023-01-19T15:51:22.004Z,77.81
2023-01-19T15:53:49.386Z,77.16
2023-01-19T15:56:21.868Z,78.89
2023-01-19T15:58:48.297Z,77.39
2023-01-19T16:01:17.117Z,79.72
2023-01-19T16:03:43.815Z,76.81
2023-01-19T16:06:10.777Z,78.87
2023-01-19T16:08:37.722Z,77.14
2023-01-19T16:11:15.378Z,76.81
2023-01-19T16:13:46.189Z,77.57
2023-01-19T16:16:16.310Z,77.94
2023-01-19T16:18:43.038Z,79.13
2023-01-19T16:21:09.528Z,76.68
2023-01-19T16:23:36.031Z,77.80
2023-01-19T16:26:07.696Z,77.56
2023-01-19T16:28:35.795Z,76.59
2023-01-19T16:31:02.339Z,77.21
2023-01-19T16:33:28.869Z,77.74
2023-01-19T16:35:55.403Z,77.35
2023-01-19T16:38:23.438Z,77.12
2023-01-19T16:40:49.881Z,78.29
2023-01-19T16:43:16.540Z,77.14
2023-01-19T16:46:00.317Z,78.67
2023-01-19T16:48:27.531Z,76.13
2023-01-19T16:51:05.803Z,75.65
2023-01-19T16:53:37.151Z,76.30
2023-01-19T16:56:13.972Z,76.74
2023-01-19T16:58:41.545Z,76.43
2023-01-19T17:01:19.729Z,75.78
2023-01-19T17:03:47.334Z,76.40
2023-01-19T17:06:15.796Z,76.33
2023-01-19T17:08:42.266Z,76.79
2023-01-19T17:11:11.168Z,75.61
2023-01-19T17:13:37.831Z,76.45
2023-01-19T17:16:05.386Z,76.42
2023-01-19T17:18:34.369Z,75.84
2023-01-19T17:21:07.655Z,76.76
2023-01-19T17:23:35.227Z,76.19
2023-01-19T17:26:02.205Z,76.78
2023-01-19T17:28:28.736Z,76.89
2023-01-19T17:30:55.307Z,77.15
2023-01-19T17:33:23.135Z,76.89
2023-01-19T17:35:49.816Z,76.42
2023-01-19T17:38:16.727Z,77.10
2023-01-19T17:40:43.176Z,75.92
2023-01-19T17:43:09.628Z,75.96
2023-01-19T17:45:36.945Z,76.00
2023-01-19T17:48:04.438Z,76.17
2023-01-19T17:50:32.539Z,76.05
2023-01-19T17:52:59.024Z,74.92
2023-01-19T17:55:25.535Z,75.70
2023-01-19T17:57:52.060Z,75.48
2023-01-19T18:00:19.013Z,75.74
2023-01-19T18:02:49.129Z,75.08
2023-01-19T18:05:15.663Z,75.71
2023-01-19T18:07:42.212Z,75.53
2023-01-19T18:10:09.498Z,76.02
2023-01-19T18:12:35.997Z,77.52
2023-01-19T18:15:03.357Z,76.16
2023-01-19T18:17:30.639Z,77.53
2023-01-19T18:19:57.168Z,76.03
2023-01-19T18:22:23.713Z,76.74
2023-01-19T18:24:50.323Z,77.85
2023-01-19T18:27:16.953Z,75.75
2023-01-19T18:29:44.030Z,76.19
2023-01-19T18:32:10.812Z,75.92
2023-01-19T18:34:38.446Z,76.93
2023-01-19T18:37:04.902Z,76.67
2023-01-19T18:39:31.378Z,76.47
2023-01-19T18:41:57.895Z,74.84
2023-01-19T18:44:24.437Z,77.61
2023-01-19T18:46:50.995Z,75.68
2023-01-19T18:49:17.718Z,76.73
2023-01-19T18:51:44.217Z,76.85
2023-01-19T18:54:11.039Z,74.98
2023-01-19T18:56:37.483Z,74.99
2023-01-19T18:59:09.023Z,75.83
2023-01-19T19:01:40.004Z,74.21
2023-01-19T19:04:08.190Z,74.65
2023-01-19T19:06:35.767Z,75.09
2023-01-19T19:09:03.318Z,75.97
2023-01-19T19:11:29.965Z,74.70
2023-01-19T19:13:59.406Z,74.37
2023-01-19T19:16:25.966Z,74.86
2023-01-19T19:18:53.300Z,75.07
2023-01-19T19:21:20.834Z,74.89
2023-01-19T19:23:55.395Z,74.75
2023-01-19T19:26:23.592Z,74.83
2023-01-19T19:28:50.177Z,73.74
2023-01-19T19:31:20.608Z,74.89
2023-01-19T19:33:49.172Z,73.94
2023-01-19T19:36:15.681Z,75.06
2023-01-19T19:38:44.522Z,73.44
2023-01-19T19:41:17.363Z,73.54
2023-01-19T19:43:44.680Z,73.27
2023-01-19T19:46:15.659Z,74.69
2023-01-19T19:48:42.869Z,74.63
2023-01-19T19:51:18.576Z,74.40
2023-01-19T19:53:45.853Z,75.00
2023-01-19T19:56:14.016Z,74.50
2023-01-19T19:58:42.448Z,74.58
2023-01-19T20:01:21.137Z,73.68
2023-01-19T20:03:50.299Z,74.57
2023-01-19T20:06:21.306Z,74.03
2023-01-19T20:08:49.138Z,74.52
2023-01-19T20:11:21.141Z,74.07
2023-01-19T20:13:47.796Z,74.04
2023-01-19T20:16:16.609Z,74.01
2023-01-19T20:18:44.954Z,73.36
2023-01-19T20:21:17.175Z,74.88
2023-01-19T20:23:44.428Z,75.42
2023-01-19T20:26:43.677Z,75.06
2023-01-19T20:29:11.117Z,73.30
2023-01-19T20:31:47.332Z,74.77
2023-01-19T20:34:16.768Z,75.46
2023-01-19T20:36:46.794Z,76.54
2023-01-19T20:39:13.277Z,76.02
2023-01-19T20:41:51.064Z,74.66
2023-01-19T20:44:21.456Z,76.98
2023-01-19T20:46:48.681Z,78.49
2023-01-19T20:49:15.333Z,78.19
2023-01-19T20:51:45.048Z,76.63
2023-01-19T20:54:13.620Z,75.83
2023-01-19T20:56:41.908Z,78.42
2023-01-19T20:59:09.605Z,78.37
2023-01-19T21:01:37.567Z,78.10
2023-01-19T21:04:04.358Z,77.99
2023-01-19T21:06:31.367Z,75.37
2023-01-19T21:08:57.870Z,76.69
2023-01-19T21:11:24.482Z,75.70
2023-01-19T21:13:56.092Z,76.06
2023-01-19T21:16:25.665Z,77.12
2023-01-19T21:18:53.148Z,76.46
2023-01-19T21:21:29.880Z,76.83
2023-01-19T21:23:58.944Z,76.94
2023-01-19T21:26:25.662Z,77.55
2023-01-19T21:28:52.445Z,76.58
2023-01-19T21:31:20.895Z,78.48
2023-01-19T21:33:49.292Z,76.96
2023-01-19T21:36:16.127Z,77.41
2023-01-19T21:38:43.054Z,77.57
2023-01-19T21:41:12.631Z,76.87
2023-01-19T21:43:44.026Z,77.46
2023-01-19T21:46:11.273Z,78.35
2023-01-19T21:48:38.246Z,76.52
2023-01-19T21:51:05.087Z,76.64
2023-01-19T21:53:31.583Z,77.34
2023-01-19T21:55:58.860Z,78.18
2023-01-19T21:58:25.513Z,76.41
2023-01-19T22:00:58.970Z,78.70
2023-01-19T22:03:27.301Z,78.02
2023-01-19T22:05:54.305Z,78.44
2023-01-19T22:08:20.738Z,77.58
2023-01-19T22:10:47.227Z,78.23
2023-01-19T22:13:14.102Z,78.39
2023-01-19T22:15:40.602Z,78.00
2023-01-19T22:18:07.113Z,77.89
2023-01-19T22:20:33.562Z,77.54
2023-01-19T22:23:00.104Z,77.73
2023-01-19T22:25:41.990Z,76.81
2023-01-19T22:28:08.439Z,77.68
2023-01-19T22:30:34.962Z,77.07
2023-01-19T22:33:01.478Z,77.39
2023-01-19T22:35:28.334Z,78.96
2023-01-19T22:37:54.779Z,78.33
2023-01-19T22:40:21.540Z,79.18
2023-01-19T22:42:57.198Z,77.96
2023-01-19T22:45:48.658Z,79.18
2023-01-19T22:48:15.085Z,78.41
2023-01-19T22:50:41.555Z,80.27
2023-01-19T22:53:08.016Z,79.48
2023-01-19T22:55:34.475Z,80.26
2023-01-19T22:58:00.893Z,80.57
2023-01-19T23:00:27.368Z,81.00
2023-01-19T23:02:53.809Z,79.98
2023-01-19T23:05:20.325Z,80.35
2023-01-19T23:07:46.771Z,79.69
2023-01-19T23:10:13.353Z,81.91
2023-01-19T23:12:39.875Z,79.41
2023-01-19T23:15:06.906Z,79.47
2023-01-19T23:17:33.373Z,80.00
2023-01-19T23:19:59.902Z,80.60
2023-01-19T23:22:26.383Z,80.33
2023-01-19T23:24:52.822Z,79.57
2023-01-19T23:27:19.318Z,78.15
2023-01-19T23:29:45.977Z,78.66
2023-01-19T23:32:12.463Z,79.67
2023-01-19T23:34:38.942Z,79.14
2023-01-19T23:37:05.461Z,79.04
2023-01-19T23:39:31.915Z,79.24
2023-01-19T23:41:58.432Z,79.39
2023-01-19T23:44:24.925Z,79.25
2023-01-19T23:46:51.456Z,80.17
2023-01-19T23:49:18.157Z,80.32
2023-01-19T23:51:44.611Z,80.99
2023-01-19T23:54:12.276Z,80.37
2023-01-19T23:56:39.248Z,78.27
2023-01-19T23:59:11.023Z,78.92
